Latest Weather Forecast - Wednesday 29th July 2020(12 Noon)

Forecast Period: 

12:00 pm 29th July 2020  to 6:00 pm 29th July 2020 

Synopsis:

Unstable conditions are across the islands.

Forecast:

Generally cloudy and occasionally breezy with intermittent scattered showers and a slight chance of isolated thunderstorms.

   Weather    Advisory/Warning:

None
Winds:

SSW - ESE at 10 - 30 km/h (6 – 19 mph) 

Sea Conditions:

Moderate to rough in open water; swells (1.5m – 2.8m)

          Marine             Advisory:

Small craft operators and sea bathers should exercise caution for above normal sea swells especially on eastern coasts

Upcoming Tides:
High: **** 1:19 pm
Low: **** 9:32 pm

Aviation WX

[Source: ADDS]
METAR
TVSA 101600Z 04014KT 9999 -SHRA BKN012 27/25 Q1014 TEMPO SHRA =
TVSA 101100Z 1012/1112 06010KT 9999 SCT018 SCT036 PROB40 TEMPO 1012/1018 SHRA BKN014 BKN032
TAF
TVSA 101100Z 1012/1112 06010KT 9999 SCT018 SCT036 PROB40 TEMPO 1012/1018 SHRA BKN014 BKN032 =
SR / SS: 09:51 / 22:28 UTC (Sunrise Sunset 2020-08-10)